createdAt,value
2023-11-06T00:00:01.483Z,69.65
2023-11-06T00:02:48.000Z,68.75
2023-11-06T00:05:34.120Z,68.65
2023-11-06T00:08:20.051Z,70.93
2023-11-06T00:11:06.138Z,70.49
2023-11-06T00:13:52.233Z,70.39
2023-11-06T00:16:40.217Z,70.64
2023-11-06T00:19:26.207Z,74.77
2023-11-06T00:22:12.364Z,75.37
2023-11-06T00:25:00.341Z,73.04
2023-11-06T00:27:46.319Z,73.83
2023-11-06T00:30:32.345Z,73.77
2023-11-06T00:33:18.317Z,71.67
2023-11-06T00:36:06.281Z,72.38
2023-11-06T00:38:52.287Z,73.94
2023-11-06T00:41:38.133Z,72.49
2023-11-06T00:44:24.171Z,71.02
2023-11-06T00:47:10.189Z,72.31
2023-11-06T00:49:56.212Z,71.55
2023-11-06T00:52:42.235Z,72.32
2023-11-06T00:55:27.983Z,71.46
2023-11-06T00:58:14.159Z,71.31
2023-11-06T01:01:00.304Z,71.58
2023-11-06T01:03:46.239Z,71.49
2023-11-06T01:06:32.362Z,70.71
2023-11-06T01:09:18.299Z,71.70
2023-11-06T01:12:04.106Z,71.01
2023-11-06T01:14:50.144Z,72.06
2023-11-06T01:17:36.170Z,71.30
2023-11-06T01:20:22.201Z,70.68
2023-11-06T01:23:08.290Z,70.47
2023-11-06T01:25:54.199Z,69.46
2023-11-06T01:28:40.345Z,70.95
2023-11-06T01:31:26.331Z,69.11
2023-11-06T01:34:12.246Z,70.53
2023-11-06T01:36:58.237Z,70.20
2023-11-06T01:39:44.131Z,70.92
2023-11-06T01:42:30.165Z,71.60
2023-11-06T01:45:16.168Z,70.66
2023-11-06T01:48:02.080Z,70.49
2023-11-06T01:50:48.072Z,69.79
2023-11-06T01:53:34.019Z,70.89
2023-11-06T01:56:19.920Z,70.24
2023-11-06T01:59:05.885Z,70.38
2023-11-06T02:01:52.178Z,70.70
2023-11-06T02:04:38.271Z,71.96
2023-11-06T02:07:24.372Z,71.47
2023-11-06T02:10:10.191Z,70.68
2023-11-06T02:12:56.241Z,73.99
2023-11-06T02:15:42.059Z,73.79
2023-11-06T02:18:27.952Z,74.78
2023-11-06T02:21:13.896Z,74.53
2023-11-06T02:23:59.784Z,74.09
2023-11-06T02:26:45.873Z,73.44
2023-11-06T02:29:31.823Z,71.04
2023-11-06T02:32:17.874Z,72.39
2023-11-06T02:35:04.401Z,71.80
2023-11-06T02:37:54.611Z,73.27
2023-11-06T02:40:42.590Z,72.78
2023-11-06T02:43:28.570Z,71.50
2023-11-06T02:46:14.607Z,71.04
2023-11-06T02:49:00.543Z,71.70
2023-11-06T02:51:48.485Z,71.38
2023-11-06T02:54:34.442Z,71.66
2023-11-06T02:57:20.341Z,70.62
2023-11-06T03:00:06.369Z,70.05
2023-11-06T03:02:52.610Z,71.03
2023-11-06T03:05:38.594Z,71.83
2023-11-06T03:08:24.740Z,72.41
2023-11-06T03:11:10.739Z,72.44
2023-11-06T03:13:56.767Z,72.96
2023-11-06T03:16:43.060Z,73.09
2023-11-06T03:19:29.226Z,73.51
2023-11-06T03:22:15.230Z,76.17
2023-11-06T03:25:01.288Z,73.85
2023-11-06T03:27:47.124Z,73.40
2023-11-06T03:30:33.182Z,74.74
2023-11-06T03:33:19.191Z,72.70
2023-11-06T03:36:05.263Z,70.63
2023-11-06T03:38:51.185Z,69.64
2023-11-06T03:41:37.031Z,69.96
2023-11-06T03:44:23.116Z,69.25
2023-11-06T03:47:09.220Z,70.33
2023-11-06T03:49:55.607Z,70.45
2023-11-06T03:52:41.632Z,70.21
2023-11-06T03:55:27.604Z,70.46
2023-11-06T03:58:13.500Z,71.45
2023-11-06T04:01:01.591Z,70.13
2023-11-06T04:03:47.669Z,69.88
2023-11-06T04:06:33.493Z,69.86
2023-11-06T04:09:19.435Z,69.56
2023-11-06T04:12:05.345Z,72.09
2023-11-06T04:14:51.335Z,71.30
2023-11-06T04:17:37.395Z,69.97
2023-11-06T04:20:23.297Z,70.86
2023-11-06T04:23:09.247Z,71.11
2023-11-06T04:25:55.217Z,70.72
2023-11-06T04:28:41.177Z,70.91
2023-11-06T04:31:27.187Z,69.10
2023-11-06T04:34:13.400Z,69.97
2023-11-06T04:36:59.333Z,69.90
2023-11-06T04:39:45.357Z,68.07
2023-11-06T04:42:31.261Z,68.61
2023-11-06T04:45:17.368Z,68.33
2023-11-06T04:48:03.451Z,69.01
2023-11-06T04:50:49.337Z,68.75
2023-11-06T04:53:35.420Z,67.18
2023-11-06T04:56:21.386Z,68.32
2023-11-06T04:59:07.391Z,70.43
2023-11-06T05:01:53.483Z,69.33
2023-11-06T05:04:39.396Z,68.47
2023-11-06T05:07:25.488Z,68.25
2023-11-06T05:10:11.325Z,68.46
2023-11-06T05:12:57.226Z,68.44
2023-11-06T05:15:43.193Z,68.66
2023-11-06T05:18:29.149Z,72.09
2023-11-06T05:21:15.043Z,73.52
2023-11-06T05:24:01.068Z,72.30
2023-11-06T05:26:46.930Z,72.95
2023-11-06T05:29:32.907Z,73.12
2023-11-06T05:32:18.933Z,72.59
2023-11-06T05:35:05.031Z,72.19
2023-11-06T05:37:51.026Z,72.03
2023-11-06T05:40:36.917Z,72.66
2023-11-06T05:43:22.888Z,72.06
2023-11-06T05:46:08.829Z,70.39
2023-11-06T05:48:54.765Z,68.76
2023-11-06T05:51:40.663Z,67.41
2023-11-06T05:54:26.612Z,68.89
2023-11-06T05:57:12.551Z,69.53
2023-11-06T05:59:58.600Z,68.54
2023-11-06T06:02:44.702Z,68.84
2023-11-06T06:05:31.252Z,67.81
2023-11-06T06:08:17.765Z,69.26
2023-11-06T06:11:03.634Z,68.66
2023-11-06T06:13:49.662Z,68.39
2023-11-06T06:16:35.701Z,66.48
2023-11-06T06:19:21.736Z,66.10
2023-11-06T06:22:07.695Z,67.03
2023-11-06T06:24:53.646Z,67.08
2023-11-06T06:27:39.556Z,68.39
2023-11-06T06:30:25.631Z,68.10
2023-11-06T06:33:11.489Z,66.78
2023-11-06T06:35:57.508Z,68.80
2023-11-06T06:38:43.484Z,68.33
2023-11-06T06:41:29.413Z,68.35
2023-11-06T06:44:15.536Z,68.67
2023-11-06T06:47:01.669Z,68.09
2023-11-06T06:49:47.772Z,66.76
2023-11-06T06:52:33.772Z,68.13
2023-11-06T06:55:19.750Z,66.37
2023-11-06T06:58:05.965Z,67.80
2023-11-06T07:00:52.469Z,66.13
2023-11-06T07:03:38.480Z,67.49
2023-11-06T07:06:24.844Z,68.71
2023-11-06T07:09:12.829Z,68.16
2023-11-06T07:11:58.778Z,67.80
2023-11-06T07:14:44.663Z,68.76
2023-11-06T07:17:30.707Z,67.81
2023-11-06T07:20:16.996Z,68.29
2023-11-06T07:23:03.388Z,69.02
2023-11-06T07:25:49.468Z,69.04
2023-11-06T07:28:35.494Z,68.65
2023-11-06T07:31:21.527Z,68.97
2023-11-06T07:34:07.333Z,68.65
2023-11-06T07:36:53.346Z,68.71
2023-11-06T07:39:39.323Z,69.22
2023-11-06T07:42:25.373Z,69.83
2023-11-06T07:45:11.320Z,72.28
2023-11-06T07:47:57.256Z,72.05
2023-11-06T07:50:43.142Z,72.67
2023-11-06T07:53:31.125Z,70.10
2023-11-06T07:56:17.192Z,71.95
2023-11-06T07:59:03.129Z,73.05
2023-11-06T08:01:49.177Z,72.92
2023-11-06T08:04:35.185Z,72.97
2023-11-06T08:07:21.479Z,75.24
2023-11-06T08:10:10.292Z,75.97
2023-11-06T08:12:56.262Z,74.87
2023-11-06T08:15:42.319Z,75.17
2023-11-06T08:18:28.382Z,77.52
2023-11-06T08:21:14.406Z,78.27
2023-11-06T08:24:00.330Z,76.19
2023-11-06T08:26:46.314Z,76.03
2023-11-06T08:29:32.370Z,75.66
2023-11-06T08:32:18.457Z,77.13
2023-11-06T08:35:04.493Z,78.87
2023-11-06T08:37:50.622Z,80.43
2023-11-06T08:40:36.838Z,78.71
2023-11-06T08:43:22.881Z,78.73
2023-11-06T08:46:08.935Z,79.25
2023-11-06T08:48:54.862Z,81.05
2023-11-06T08:51:40.911Z,79.04
2023-11-06T08:54:26.882Z,80.26
2023-11-06T08:57:12.679Z,78.72
2023-11-06T08:59:58.610Z,80.35
2023-11-06T09:02:44.726Z,77.94
2023-11-06T09:05:30.618Z,78.63
2023-11-06T09:08:17.382Z,79.64
2023-11-06T09:11:03.452Z,80.03
2023-11-06T09:13:49.416Z,79.47
2023-11-06T09:16:35.444Z,77.72
2023-11-06T09:19:21.200Z,75.69
2023-11-06T09:22:07.261Z,76.61
2023-11-06T09:24:55.200Z,78.78
2023-11-06T09:27:41.004Z,77.96
2023-11-06T09:30:27.107Z,77.91
2023-11-06T09:33:13.367Z,79.91
2023-11-06T09:35:59.611Z,77.05
2023-11-06T09:38:45.670Z,77.43
2023-11-06T09:41:31.727Z,77.24
2023-11-06T09:44:17.660Z,76.42
2023-11-06T09:47:04.966Z,77.37
2023-11-06T09:49:51.268Z,77.26
2023-11-06T09:52:37.302Z,76.98
2023-11-06T09:55:23.501Z,76.94
2023-11-06T09:58:11.475Z,76.53
2023-11-06T10:00:57.550Z,76.12
2023-11-06T10:03:43.772Z,74.75
2023-11-06T10:06:29.892Z,74.43
2023-11-06T10:09:15.866Z,75.76
2023-11-06T10:12:01.854Z,74.25
2023-11-06T10:14:48.149Z,74.86
2023-11-06T10:17:34.556Z,72.46
2023-11-06T10:20:20.550Z,73.72
2023-11-06T10:23:06.570Z,73.21
2023-11-06T10:25:52.539Z,73.79
2023-11-06T10:28:38.796Z,75.31
2023-11-06T10:31:25.592Z,75.38
2023-11-06T10:34:11.763Z,74.54
2023-11-06T10:36:57.700Z,73.82
2023-11-06T10:39:43.655Z,73.59
2023-11-06T10:42:29.647Z,72.95
2023-11-06T10:45:15.617Z,71.19
2023-11-06T10:48:02.813Z,73.08
2023-11-06T10:50:49.335Z,73.14
2023-11-06T10:53:35.288Z,71.94
2023-11-06T10:56:21.274Z,72.99
2023-11-06T10:59:07.158Z,72.77
2023-11-06T11:01:53.068Z,72.13
2023-11-06T11:04:39.127Z,73.05
2023-11-06T11:07:25.086Z,71.39
2023-11-06T11:10:10.948Z,71.97
2023-11-06T11:12:57.191Z,72.59
2023-11-06T11:15:43.506Z,73.29
2023-11-06T11:18:29.569Z,72.36
2023-11-06T11:21:15.599Z,74.72
2023-11-06T11:24:01.578Z,75.95
2023-11-06T11:26:47.602Z,73.93
2023-11-06T11:29:33.741Z,73.41
2023-11-06T11:32:19.988Z,75.72
2023-11-06T11:35:06.532Z,71.37
2023-11-06T11:37:52.329Z,69.67
2023-11-06T11:40:38.369Z,68.78
2023-11-06T11:43:24.389Z,68.41
2023-11-06T11:46:10.329Z,67.74
2023-11-06T11:48:56.319Z,69.62
2023-11-06T11:51:42.338Z,68.44
2023-11-06T11:54:28.427Z,69.55
2023-11-06T11:57:16.467Z,69.15
2023-11-06T12:00:02.558Z,68.43
2023-11-06T12:02:48.491Z,69.55
2023-11-06T12:05:34.634Z,67.93
2023-11-06T12:08:20.984Z,68.96
2023-11-06T12:11:06.958Z,68.23
2023-11-06T12:13:53.439Z,71.68
2023-11-06T12:16:39.311Z,69.50
2023-11-06T12:19:25.405Z,70.49
2023-11-06T12:22:11.406Z,68.76
2023-11-06T12:24:57.305Z,69.57
2023-11-06T12:27:43.356Z,69.81
2023-11-06T12:30:29.409Z,67.60
2023-11-06T12:33:15.781Z,67.28
2023-11-06T12:36:01.912Z,67.47
2023-11-06T12:38:47.920Z,68.02
2023-11-06T12:41:34.024Z,68.02
2023-11-06T12:44:20.031Z,69.13
2023-11-06T12:47:05.999Z,67.56
2023-11-06T12:49:52.302Z,67.62
2023-11-06T12:52:40.256Z,68.95
2023-11-06T12:55:26.275Z,68.23
2023-11-06T12:58:14.248Z,70.17
2023-11-06T13:01:00.237Z,68.97
2023-11-06T13:03:46.810Z,66.94
2023-11-06T13:06:33.094Z,68.39
2023-11-06T13:09:19.094Z,68.09
2023-11-06T13:12:05.169Z,68.20
2023-11-06T13:14:51.379Z,68.66
2023-11-06T13:17:37.470Z,68.04
2023-11-06T13:20:23.418Z,66.16
2023-11-06T13:23:09.422Z,68.06
2023-11-06T13:25:55.250Z,66.44
2023-11-06T13:28:41.317Z,66.81
2023-11-06T13:31:27.437Z,68.03
2023-11-06T13:34:13.430Z,67.20
2023-11-06T13:36:59.316Z,66.92
2023-11-06T13:39:45.313Z,67.65
2023-11-06T13:42:31.143Z,67.01
2023-11-06T13:45:17.258Z,67.21
2023-11-06T13:48:03.253Z,65.90
2023-11-06T13:50:49.466Z,67.17
2023-11-06T13:53:35.975Z,67.86
2023-11-06T13:56:24.852Z,65.67
2023-11-06T13:59:13.504Z,65.74
2023-11-06T14:01:59.523Z,65.21
2023-11-06T14:04:45.592Z,67.50
2023-11-06T14:07:31.626Z,67.41
2023-11-06T14:10:17.530Z,67.05
2023-11-06T14:13:03.453Z,69.04
2023-11-06T14:15:49.269Z,69.64
2023-11-06T14:18:35.346Z,68.77
2023-11-06T14:21:21.285Z,67.44
2023-11-06T14:24:07.290Z,66.44
2023-11-06T14:26:53.324Z,66.54
2023-11-06T14:29:39.386Z,66.41
2023-11-06T14:32:27.655Z,67.47
2023-11-06T14:35:14.451Z,67.16
2023-11-06T14:38:00.473Z,67.05
2023-11-06T14:40:46.451Z,67.02
2023-11-06T14:43:32.334Z,65.01
2023-11-06T14:46:18.410Z,65.77
2023-11-06T14:49:06.592Z,64.37
2023-11-06T14:51:52.877Z,64.70
2023-11-06T14:54:39.220Z,63.71
2023-11-06T14:57:25.235Z,65.64
2023-11-06T15:00:11.208Z,65.00
2023-11-06T15:02:57.282Z,64.42
2023-11-06T15:05:43.692Z,63.76
2023-11-06T15:08:29.871Z,64.01
2023-11-06T15:11:15.898Z,65.63
2023-11-06T15:14:02.993Z,66.61
2023-11-06T15:16:48.884Z,64.84
2023-11-06T15:19:34.790Z,65.16
2023-11-06T15:22:20.660Z,62.78
2023-11-06T15:25:06.885Z,63.01
2023-11-06T15:27:53.055Z,64.67
2023-11-06T15:30:39.094Z,65.00
2023-11-06T15:33:25.300Z,64.55
2023-11-06T15:36:11.870Z,63.63
2023-11-06T15:38:57.671Z,64.52
2023-11-06T15:41:43.757Z,64.91
2023-11-06T15:44:31.862Z,64.26
2023-11-06T15:47:17.688Z,65.00
2023-11-06T15:50:03.604Z,70.22
2023-11-06T15:52:49.600Z,72.09
2023-11-06T15:55:35.657Z,75.00
2023-11-06T15:58:23.740Z,72.56
2023-11-06T16:01:09.745Z,74.21
2023-11-06T16:03:55.722Z,74.32
2023-11-06T16:06:41.876Z,80.26
2023-11-06T16:09:27.853Z,81.35
2023-11-06T16:12:13.927Z,86.25
2023-11-06T16:14:59.987Z,85.79
2023-11-06T16:17:46.080Z,83.78
2023-11-06T16:20:32.491Z,76.57
2023-11-06T16:23:18.519Z,75.22
2023-11-06T16:26:04.541Z,72.45
2023-11-06T16:28:50.488Z,70.79
2023-11-06T16:31:36.606Z,70.41
2023-11-06T16:34:27.421Z,69.88
2023-11-06T16:37:21.828Z,71.74
2023-11-06T16:40:07.905Z,74.30
2023-11-06T16:42:53.983Z,72.40
2023-11-06T16:45:40.133Z,70.65
2023-11-06T16:48:29.788Z,71.06
2023-11-06T16:51:15.929Z,69.83
2023-11-06T16:54:02.060Z,68.48
2023-11-06T16:56:48.090Z,68.43
2023-11-06T16:59:34.326Z,68.95
2023-11-06T17:02:20.330Z,69.11
2023-11-06T17:05:06.569Z,67.53
2023-11-06T17:07:52.911Z,71.27
2023-11-06T17:10:38.803Z,68.76
2023-11-06T17:13:24.840Z,70.94
2023-11-06T17:16:10.882Z,74.08
2023-11-06T17:18:56.961Z,76.66
2023-11-06T17:21:45.072Z,73.90
2023-11-06T17:24:31.189Z,72.81
2023-11-06T17:27:17.073Z,68.91
2023-11-06T17:30:03.156Z,67.91
2023-11-06T17:32:49.145Z,67.60
2023-11-06T17:35:35.404Z,68.03
2023-11-06T17:38:21.365Z,67.50
2023-11-06T17:41:07.249Z,66.15
2023-11-06T17:43:53.295Z,64.80
2023-11-06T17:46:39.494Z,64.49
2023-11-06T17:49:27.377Z,64.30
2023-11-06T17:52:13.242Z,64.40
2023-11-06T17:54:59.261Z,64.32
2023-11-06T17:57:45.425Z,64.41
2023-11-06T18:00:33.415Z,63.56
2023-11-06T18:03:19.383Z,63.07
2023-11-06T18:06:05.291Z,62.16
2023-11-06T18:08:51.353Z,60.49
2023-11-06T18:11:37.434Z,59.91
2023-11-06T18:14:23.490Z,61.59
2023-11-06T18:17:09.622Z,60.60
2023-11-06T18:19:55.488Z,60.43
2023-11-06T18:22:41.584Z,61.64
2023-11-06T18:25:27.593Z,61.21
2023-11-06T18:28:13.605Z,60.52
2023-11-06T18:30:59.539Z,61.03
2023-11-06T18:33:45.643Z,60.96
2023-11-06T18:36:31.843Z,61.61
2023-11-06T18:39:17.959Z,61.76
2023-11-06T18:42:03.859Z,62.45
2023-11-06T18:44:50.014Z,63.75
2023-11-06T18:47:36.221Z,62.51
2023-11-06T18:50:22.461Z,63.29
2023-11-06T18:53:08.412Z,62.24
2023-11-06T18:55:54.326Z,63.20
2023-11-06T18:58:42.168Z,64.44
2023-11-06T19:01:28.611Z,66.18
2023-11-06T19:04:14.824Z,66.71
2023-11-06T19:07:00.608Z,68.16
2023-11-06T19:09:46.684Z,67.88
2023-11-06T19:12:32.667Z,67.73
2023-11-06T19:15:18.941Z,67.79
2023-11-06T19:18:05.058Z,67.66
2023-11-06T19:20:51.521Z,67.41
2023-11-06T19:23:37.750Z,68.14
2023-11-06T19:26:23.998Z,67.55
2023-11-06T19:29:09.944Z,67.44
2023-11-06T19:31:55.864Z,68.49
2023-11-06T19:34:41.778Z,68.93
2023-11-06T19:37:27.728Z,69.61
2023-11-06T19:40:13.749Z,68.50
2023-11-06T19:42:59.627Z,67.26
2023-11-06T19:45:45.636Z,67.26
2023-11-06T19:48:37.384Z,67.98
2023-11-06T19:51:24.387Z,68.44
2023-11-06T19:54:12.543Z,68.32
2023-11-06T19:56:59.162Z,69.02
2023-11-06T19:59:57.606Z,69.16
2023-11-06T20:02:50.507Z,69.30
2023-11-06T20:05:36.644Z,68.38
2023-11-06T20:08:23.092Z,68.72
2023-11-06T20:11:09.038Z,68.43
2023-11-06T20:13:56.955Z,69.24
2023-11-06T20:16:43.014Z,69.18
2023-11-06T20:19:29.063Z,68.03
2023-11-06T20:22:14.949Z,67.67
2023-11-06T20:25:00.829Z,66.37
2023-11-06T20:27:46.762Z,67.26
2023-11-06T20:30:32.790Z,66.61
2023-11-06T20:33:19.095Z,66.20
2023-11-06T20:36:07.093Z,65.73
2023-11-06T20:38:53.044Z,65.66
2023-11-06T20:41:39.501Z,65.68
2023-11-06T20:44:25.298Z,65.05
2023-11-06T20:47:11.204Z,65.00
2023-11-06T20:49:57.059Z,66.14
2023-11-06T20:52:42.965Z,64.34
2023-11-06T20:55:28.990Z,64.05
2023-11-06T20:58:17.000Z,63.94
2023-11-06T21:01:02.875Z,64.74
2023-11-06T21:03:49.047Z,64.38
2023-11-06T21:06:35.150Z,62.94
2023-11-06T21:09:21.296Z,63.51
2023-11-06T21:12:07.467Z,64.45
2023-11-06T21:14:53.263Z,64.00
2023-11-06T21:17:39.219Z,64.29
2023-11-06T21:20:27.322Z,65.06
2023-11-06T21:23:13.251Z,64.47
2023-11-06T21:25:59.218Z,64.81
2023-11-06T21:28:45.265Z,65.65
2023-11-06T21:31:31.176Z,64.05
2023-11-06T21:34:17.193Z,64.18
2023-11-06T21:37:03.207Z,65.36
2023-11-06T21:39:49.276Z,63.47
2023-11-06T21:42:35.338Z,63.65
2023-11-06T21:45:21.210Z,63.38
2023-11-06T21:48:07.196Z,62.77
2023-11-06T21:50:53.627Z,61.28
2023-11-06T21:53:39.574Z,62.28
2023-11-06T21:56:25.618Z,61.00
2023-11-06T21:59:11.676Z,61.08
2023-11-06T22:01:57.695Z,61.47
2023-11-06T22:04:43.784Z,60.88
2023-11-06T22:07:29.664Z,60.92
2023-11-06T22:10:23.218Z,60.35
2023-11-06T22:13:11.956Z,60.88
2023-11-06T22:15:57.980Z,60.79
2023-11-06T22:18:44.012Z,60.77
2023-11-06T22:21:30.354Z,61.60
2023-11-06T22:24:16.392Z,61.12
2023-11-06T22:27:02.323Z,61.71
2023-11-06T22:29:48.435Z,62.88
2023-11-06T22:32:34.607Z,62.20
2023-11-06T22:35:22.782Z,61.92
2023-11-06T22:38:10.167Z,61.99
2023-11-06T22:40:56.480Z,62.58
2023-11-06T22:43:42.296Z,62.46
2023-11-06T22:46:28.364Z,63.74
2023-11-06T22:49:16.574Z,64.44
2023-11-06T22:52:02.647Z,63.68
2023-11-06T22:54:48.696Z,63.18
2023-11-06T22:57:34.763Z,61.98
2023-11-06T23:00:20.751Z,64.90
2023-11-06T23:03:06.925Z,65.55
2023-11-06T23:05:53.246Z,65.77
2023-11-06T23:08:39.213Z,66.15
2023-11-06T23:11:25.383Z,67.61
2023-11-06T23:14:11.309Z,67.04
2023-11-06T23:16:57.329Z,67.87
2023-11-06T23:19:43.232Z,66.64
2023-11-06T23:22:29.198Z,67.98
2023-11-06T23:25:17.762Z,67.55
2023-11-06T23:28:06.396Z,66.65
2023-11-06T23:30:52.428Z,67.53
2023-11-06T23:33:38.435Z,67.82
2023-11-06T23:36:24.549Z,66.81
2023-11-06T23:39:10.476Z,67.60
2023-11-06T23:41:56.540Z,67.88
2023-11-06T23:44:42.563Z,67.84
2023-11-06T23:47:28.515Z,67.46
2023-11-06T23:50:16.678Z,69.40
2023-11-06T23:53:02.786Z,70.72
2023-11-06T23:55:48.703Z,72.96
2023-11-06T23:58:35.834Z,72.12
